sensor_id;sensor_type;location;lat;lon;timestamp;pressure;altitude;pressure_sealevel;temperature;humidity
32083;BME280;18597;48.328;7.932;2023-08-31T00:02:14;99053.84;;;13.31;100.00
32083;BME280;18597;48.328;7.932;2023-08-31T00:04:40;99060.38;;;13.29;100.00
32083;BME280;18597;48.328;7.932;2023-08-31T00:07:06;99061.03;;;13.23;100.00
32083;BME280;18597;48.328;7.932;2023-08-31T00:09:32;99062.53;;;13.25;100.00
32083;BME280;18597;48.328;7.932;2023-08-31T00:11:58;99070.22;;;13.20;100.00
32083;BME280;18597;48.328;7.932;2023-08-31T00:14:25;99069.28;;;13.03;100.00
32083;BME280;18597;48.328;7.932;2023-08-31T00:16:52;99074.00;;;13.10;100.00
32083;BME280;18597;48.328;7.932;2023-08-31T00:19:18;99076.69;;;13.10;100.00
32083;BME280;18597;48.328;7.932;2023-08-31T00:21:44;99070.31;;;13.11;100.00
32083;BME280;18597;48.328;7.932;2023-08-31T00:24:10;99065.97;;;13.10;100.00
32083;BME280;18597;48.328;7.932;2023-08-31T00:26:37;99059.88;;;13.25;100.00
32083;BME280;18597;48.328;7.932;2023-08-31T00:29:07;99064.16;;;13.18;100.00
32083;BME280;18597;48.328;7.932;2023-08-31T00:31:34;99065.44;;;13.06;100.00
32083;BME280;18597;48.328;7.932;2023-08-31T00:34:01;99062.56;;;12.99;100.00
32083;BME280;18597;48.328;7.932;2023-08-31T00:36:30;99059.84;;;12.91;100.00
32083;BME280;18597;48.328;7.932;2023-08-31T00:38:57;99057.66;;;12.87;100.00
32083;BME280;18597;48.328;7.932;2023-08-31T00:41:23;99068.16;;;12.80;100.00
32083;BME280;18597;48.328;7.932;2023-08-31T00:43:48;99064.94;;;12.76;100.00
32083;BME280;18597;48.328;7.932;2023-08-31T00:46:14;99065.44;;;12.72;100.00
32083;BME280;18597;48.328;7.932;2023-08-31T00:48:41;99067.50;;;12.78;100.00
32083;BME280;18597;48.328;7.932;2023-08-31T00:51:07;99064.06;;;12.94;100.00
32083;BME280;18597;48.328;7.932;2023-08-31T00:53:34;99069.94;;;12.97;100.00
32083;BME280;18597;48.328;7.932;2023-08-31T00:56:01;99073.66;;;13.04;100.00
32083;BME280;18597;48.328;7.932;2023-08-31T00:58:28;99072.97;;;13.02;100.00
32083;BME280;18597;48.328;7.932;2023-08-31T01:03:53;99082.00;;;12.93;100.00
32083;BME280;18597;48.328;7.932;2023-08-31T01:10:18;99070.75;;;12.98;100.00
32083;BME280;18597;48.328;7.932;2023-08-31T01:12:44;99075.28;;;12.97;100.00
32083;BME280;18597;48.328;7.932;2023-08-31T01:15:13;99073.09;;;12.93;100.00
32083;BME280;18597;48.328;7.932;2023-08-31T01:17:47;99074.25;;;12.90;100.00
32083;BME280;18597;48.328;7.932;2023-08-31T01:20:22;99079.13;;;12.95;100.00
32083;BME280;18597;48.328;7.932;2023-08-31T01:23:09;99076.34;;;13.04;100.00
32083;BME280;18597;48.328;7.932;2023-08-31T01:25:36;99072.97;;;13.02;100.00
32083;BME280;18597;48.328;7.932;2023-08-31T01:28:03;99077.66;;;13.00;100.00
32083;BME280;18597;48.328;7.932;2023-08-31T01:30:30;99068.91;;;13.24;100.00
32083;BME280;18597;48.328;7.932;2023-08-31T01:32:57;99075.63;;;13.28;100.00
32083;BME280;18597;48.328;7.932;2023-08-31T01:35:23;99072.69;;;13.14;100.00
32083;BME280;18597;48.328;7.932;2023-08-31T01:37:54;99074.00;;;13.10;100.00
32083;BME280;18597;48.328;7.932;2023-08-31T01:40:44;99070.84;;;13.14;100.00
32083;BME280;18597;48.328;7.932;2023-08-31T01:43:17;99076.97;;;12.98;100.00
32083;BME280;18597;48.328;7.932;2023-08-31T01:45:45;99075.28;;;12.97;100.00
32083;BME280;18597;48.328;7.932;2023-08-31T01:48:14;99086.00;;;12.97;100.00
32083;BME280;18597;48.328;7.932;2023-08-31T01:50:41;99086.84;;;12.98;100.00
32083;BME280;18597;48.328;7.932;2023-08-31T01:53:06;99086.75;;;13.08;100.00
32083;BME280;18597;48.328;7.932;2023-08-31T01:55:32;99082.88;;;13.02;100.00
32083;BME280;18597;48.328;7.932;2023-08-31T01:57:58;99083.41;;;13.14;100.00
32083;BME280;18597;48.328;7.932;2023-08-31T02:00:25;99089.06;;;13.02;100.00
32083;BME280;18597;48.328;7.932;2023-08-31T02:02:51;99091.88;;;12.93;100.00
32083;BME280;18597;48.328;7.932;2023-08-31T02:05:17;99094.38;;;12.94;100.00
32083;BME280;18597;48.328;7.932;2023-08-31T02:07:43;99086.38;;;13.02;100.00
32083;BME280;18597;48.328;7.932;2023-08-31T02:10:09;99096.78;;;13.05;100.00
32083;BME280;18597;48.328;7.932;2023-08-31T02:12:35;99089.94;;;13.11;100.00
32083;BME280;18597;48.328;7.932;2023-08-31T02:15:04;99100.00;;;13.09;100.00
32083;BME280;18597;48.328;7.932;2023-08-31T02:17:31;99104.19;;;13.12;100.00
32083;BME280;18597;48.328;7.932;2023-08-31T02:19:57;99096.94;;;13.30;100.00
32083;BME280;18597;48.328;7.932;2023-08-31T02:22:23;99096.69;;;13.15;100.00
32083;BME280;18597;48.328;7.932;2023-08-31T02:24:49;99098.81;;;13.12;100.00
32083;BME280;18597;48.328;7.932;2023-08-31T02:27:15;99103.72;;;13.16;100.00
32083;BME280;18597;48.328;7.932;2023-08-31T02:29:40;99120.34;;;13.20;100.00
32083;BME280;18597;48.328;7.932;2023-08-31T02:32:07;99115.44;;;13.15;100.00
32083;BME280;18597;48.328;7.932;2023-08-31T02:34:33;99117.25;;;13.15;100.00
32083;BME280;18597;48.328;7.932;2023-08-31T02:36:59;99113.91;;;13.13;100.00
32083;BME280;18597;48.328;7.932;2023-08-31T02:39:25;99107.84;;;13.37;100.00
32083;BME280;18597;48.328;7.932;2023-08-31T02:41:50;99114.75;;;13.39;100.00
32083;BME280;18597;48.328;7.932;2023-08-31T02:44:16;99118.34;;;13.22;100.00
32083;BME280;18597;48.328;7.932;2023-08-31T02:46:42;99114.81;;;13.21;100.00
32083;BME280;18597;48.328;7.932;2023-08-31T02:49:08;99112.84;;;13.23;100.00
32083;BME280;18597;48.328;7.932;2023-08-31T02:51:33;99116.78;;;13.19;100.00
32083;BME280;18597;48.328;7.932;2023-08-31T02:53:59;99116.38;;;13.06;100.00
32083;BME280;18597;48.328;7.932;2023-08-31T02:56:25;99120.06;;;13.23;100.00
32083;BME280;18597;48.328;7.932;2023-08-31T02:58:51;99120.13;;;13.13;100.00
32083;BME280;18597;48.328;7.932;2023-08-31T03:01:16;99117.19;;;12.98;100.00
32083;BME280;18597;48.328;7.932;2023-08-31T03:03:43;99114.50;;;12.98;100.00
32083;BME280;18597;48.328;7.932;2023-08-31T03:06:11;99118.50;;;12.94;100.00
32083;BME280;18597;48.328;7.932;2023-08-31T03:08:37;99119.34;;;12.95;100.00
32083;BME280;18597;48.328;7.932;2023-08-31T03:11:04;99116.72;;;13.03;100.00
32083;BME280;18597;48.328;7.932;2023-08-31T03:13:32;99127.91;;;12.98;100.00
32083;BME280;18597;48.328;7.932;2023-08-31T03:15:59;99122.88;;;12.95;100.00
32083;BME280;18597;48.328;7.932;2023-08-31T03:18:26;99113.41;;;13.09;100.00
32083;BME280;18597;48.328;7.932;2023-08-31T03:20:52;99121.63;;;13.08;100.00
32083;BME280;18597;48.328;7.932;2023-08-31T03:23:17;99129.28;;;13.02;100.00
32083;BME280;18597;48.328;7.932;2023-08-31T03:25:43;99135.31;;;13.04;100.00
32083;BME280;18597;48.328;7.932;2023-08-31T03:28:09;99137.84;;;13.06;100.00
32083;BME280;18597;48.328;7.932;2023-08-31T03:30:36;99137.03;;;13.14;100.00
32083;BME280;18597;48.328;7.932;2023-08-31T03:33:02;99136.53;;;13.10;100.00
32083;BME280;18597;48.328;7.932;2023-08-31T03:35:28;99140.69;;;13.04;100.00
32083;BME280;18597;48.328;7.932;2023-08-31T03:37:55;99151.13;;;13.08;100.00
32083;BME280;18597;48.328;7.932;2023-08-31T03:40:21;99136.53;;;13.10;100.00
32083;BME280;18597;48.328;7.932;2023-08-31T03:42:49;99134.53;;;13.12;100.00
32083;BME280;18597;48.328;7.932;2023-08-31T03:45:16;99140.06;;;13.11;100.00
32083;BME280;18597;48.328;7.932;2023-08-31T03:47:42;99134.84;;;13.09;100.00
32083;BME280;18597;48.328;7.932;2023-08-31T03:50:08;99139.50;;;13.07;100.00
32083;BME280;18597;48.328;7.932;2023-08-31T03:52:34;99141.34;;;13.06;100.00
32083;BME280;18597;48.328;7.932;2023-08-31T03:55:00;99145.59;;;13.09;100.00
32083;BME280;18597;48.328;7.932;2023-08-31T03:57:26;99152.63;;;13.10;100.00
32083;BME280;18597;48.328;7.932;2023-08-31T03:59:52;99160.28;;;13.23;100.00
32083;BME280;18597;48.328;7.932;2023-08-31T04:02:18;99164.09;;;13.20;100.00
32083;BME280;18597;48.328;7.932;2023-08-31T04:04:43;99169.94;;;13.16;100.00
32083;BME280;18597;48.328;7.932;2023-08-31T04:07:09;99163.41;;;13.18;100.00
32083;BME280;18597;48.328;7.932;2023-08-31T04:09:35;99163.53;;;13.09;100.00
32083;BME280;18597;48.328;7.932;2023-08-31T04:12:01;99157.78;;;13.03;100.00
32083;BME280;18597;48.328;7.932;2023-08-31T04:14:27;99153.63;;;13.09;100.00
32083;BME280;18597;48.328;7.932;2023-08-31T04:16:55;99155.31;;;13.10;100.00
32083;BME280;18597;48.328;7.932;2023-08-31T04:19:21;99157.53;;;12.89;100.00
32083;BME280;18597;48.328;7.932;2023-08-31T04:21:48;99168.88;;;12.83;100.00
32083;BME280;18597;48.328;7.932;2023-08-31T04:24:14;99168.03;;;12.82;100.00
32083;BME280;18597;48.328;7.932;2023-08-31T04:26:40;99173.44;;;12.90;100.00
32083;BME280;18597;48.328;7.932;2023-08-31T04:29:06;99172.66;;;12.98;100.00
32083;BME280;18597;48.328;7.932;2023-08-31T04:31:33;99169.97;;;12.98;100.00
32083;BME280;18597;48.328;7.932;2023-08-31T04:33:59;99167.66;;;13.03;100.00
32083;BME280;18597;48.328;7.932;2023-08-31T04:36:25;99172.50;;;12.99;100.00
32083;BME280;18597;48.328;7.932;2023-08-31T04:38:52;99177.38;;;13.04;100.00
32083;BME280;18597;48.328;7.932;2023-08-31T04:41:18;99173.59;;;13.15;100.00
32083;BME280;18597;48.328;7.932;2023-08-31T04:43:44;99173.00;;;13.21;100.00
32083;BME280;18597;48.328;7.932;2023-08-31T04:46:13;99172.16;;;13.20;100.00
32083;BME280;18597;48.328;7.932;2023-08-31T04:48:39;99172.16;;;13.20;100.00
32083;BME280;18597;48.328;7.932;2023-08-31T04:51:05;99177.81;;;13.17;100.00
32083;BME280;18597;48.328;7.932;2023-08-31T04:53:31;99184.00;;;13.18;100.00
32083;BME280;18597;48.328;7.932;2023-08-31T04:55:58;99186.25;;;13.22;100.00
32083;BME280;18597;48.328;7.932;2023-08-31T04:58:24;99188.91;;;13.22;100.00
32083;BME280;18597;48.328;7.932;2023-08-31T05:00:51;99185.25;;;13.23;100.00
32083;BME280;18597;48.328;7.932;2023-08-31T05:03:17;99192.72;;;13.38;100.00
32083;BME280;18597;48.328;7.932;2023-08-31T05:05:43;99197.72;;;13.32;100.00
32083;BME280;18597;48.328;7.932;2023-08-31T05:08:09;99207.78;;;13.30;100.00
32083;BME280;18597;48.328;7.932;2023-08-31T05:10:35;99208.66;;;13.39;100.00
32083;BME280;18597;48.328;7.932;2023-08-31T05:13:01;99215.94;;;13.29;100.00
32083;BME280;18597;48.328;7.932;2023-08-31T05:15:27;99210.16;;;13.42;100.00
32083;BME280;18597;48.328;7.932;2023-08-31T05:17:53;99220.69;;;13.35;100.00
32083;BME280;18597;48.328;7.932;2023-08-31T05:20:20;99228.44;;;13.38;100.00
32083;BME280;18597;48.328;7.932;2023-08-31T05:22:48;99233.06;;;13.54;100.00
32083;BME280;18597;48.328;7.932;2023-08-31T05:25:14;99236.97;;;13.68;100.00
32083;BME280;18597;48.328;7.932;2023-08-31T05:27:40;99234.69;;;13.81;100.00
32083;BME280;18597;48.328;7.932;2023-08-31T05:30:06;99235.53;;;13.89;100.00
32083;BME280;18597;48.328;7.932;2023-08-31T05:32:32;99230.72;;;13.93;100.00
32083;BME280;18597;48.328;7.932;2023-08-31T05:34:58;99233.06;;;13.96;100.00
32083;BME280;18597;48.328;7.932;2023-08-31T05:37:25;99235.25;;;14.01;100.00
32083;BME280;18597;48.328;7.932;2023-08-31T05:39:51;99240.84;;;14.07;100.00
32083;BME280;18597;48.328;7.932;2023-08-31T05:42:17;99241.53;;;14.18;100.00
32083;BME280;18597;48.328;7.932;2023-08-31T05:44:44;99248.94;;;14.24;100.00
32083;BME280;18597;48.328;7.932;2023-08-31T05:47:10;99243.56;;;14.24;100.00
32083;BME280;18597;48.328;7.932;2023-08-31T05:49:35;99247.09;;;14.32;100.00
32083;BME280;18597;48.328;7.932;2023-08-31T05:52:01;99246.63;;;14.45;100.00
32083;BME280;18597;48.328;7.932;2023-08-31T05:54:27;99251.22;;;14.69;100.00
32083;BME280;18597;48.328;7.932;2023-08-31T05:56:53;99245.03;;;14.85;100.00
32083;BME280;18597;48.328;7.932;2023-08-31T05:59:19;99260.66;;;14.97;100.00
32083;BME280;18597;48.328;7.932;2023-08-31T06:01:45;99265.03;;;15.07;100.00
32083;BME280;18597;48.328;7.932;2023-08-31T06:04:11;99264.00;;;15.16;100.00
32083;BME280;18597;48.328;7.932;2023-08-31T06:06:36;99265.38;;;15.20;100.00
32083;BME280;18597;48.328;7.932;2023-08-31T06:09:03;99273.91;;;15.23;100.00
32083;BME280;18597;48.328;7.932;2023-08-31T06:11:30;99275.59;;;15.33;100.00
32083;BME280;18597;48.328;7.932;2023-08-31T06:13:56;99277.59;;;15.39;100.00
32083;BME280;18597;48.328;7.932;2023-08-31T06:16:21;99272.38;;;15.53;100.00
32083;BME280;18597;48.328;7.932;2023-08-31T06:18:49;99276.56;;;15.72;100.00
32083;BME280;18597;48.328;7.932;2023-08-31T06:21:15;99270.75;;;15.92;100.00
32083;BME280;18597;48.328;7.932;2023-08-31T06:23:41;99275.75;;;16.11;100.00
32083;BME280;18597;48.328;7.932;2023-08-31T06:26:06;99265.88;;;16.34;100.00
32083;BME280;18597;48.328;7.932;2023-08-31T06:28:32;99259.19;;;16.76;100.00
32083;BME280;18597;48.328;7.932;2023-08-31T06:30:58;99254.66;;;17.14;100.00
32083;BME280;18597;48.328;7.932;2023-08-31T06:33:24;99256.00;;;17.86;100.00
32083;BME280;18597;48.328;7.932;2023-08-31T06:35:49;99274.16;;;18.21;100.00
32083;BME280;18597;48.328;7.932;2023-08-31T06:38:18;99281.22;;;18.58;100.00
32083;BME280;18597;48.328;7.932;2023-08-31T06:40:46;99292.44;;;18.70;100.00
32083;BME280;18597;48.328;7.932;2023-08-31T06:43:12;99291.09;;;18.45;100.00
32083;BME280;18597;48.328;7.932;2023-08-31T06:45:38;99285.06;;;19.56;100.00
32083;BME280;18597;48.328;7.932;2023-08-31T06:48:06;99288.50;;;20.41;100.00
32083;BME280;18597;48.328;7.932;2023-08-31T06:50:33;99295.84;;;20.47;100.00
32083;BME280;18597;48.328;7.932;2023-08-31T06:53:01;99299.03;;;20.16;100.00
32083;BME280;18597;48.328;7.932;2023-08-31T06:55:27;99296.22;;;19.96;100.00
32083;BME280;18597;48.328;7.932;2023-08-31T06:57:52;99301.28;;;20.06;100.00
32083;BME280;18597;48.328;7.932;2023-08-31T07:00:19;99303.53;;;20.43;100.00
32083;BME280;18597;48.328;7.932;2023-08-31T07:02:45;99296.22;;;21.12;100.00
32083;BME280;18597;48.328;7.932;2023-08-31T07:05:11;99296.47;;;21.50;98.63
32083;BME280;18597;48.328;7.932;2023-08-31T07:07:37;99289.38;;;21.62;96.60
32083;BME280;18597;48.328;7.932;2023-08-31T07:10:03;99291.03;;;21.30;91.68
32083;BME280;18597;48.328;7.932;2023-08-31T07:12:31;99294.88;;;20.68;98.49
32083;BME280;18597;48.328;7.932;2023-08-31T07:14:57;99298.47;;;20.82;100.00
32083;BME280;18597;48.328;7.932;2023-08-31T07:17:23;99304.47;;;20.70;98.34
32083;BME280;18597;48.328;7.932;2023-08-31T07:19:48;99297.19;;;20.64;99.64
32083;BME280;18597;48.328;7.932;2023-08-31T07:22:14;99297.19;;;20.64;100.00
32083;BME280;18597;48.328;7.932;2023-08-31T07:24:40;99295.53;;;20.83;99.41
32083;BME280;18597;48.328;7.932;2023-08-31T07:27:06;99298.88;;;20.85;100.00
32083;BME280;18597;48.328;7.932;2023-08-31T07:29:32;99280.56;;;21.73;94.33
32083;BME280;18597;48.328;7.932;2023-08-31T07:31:58;99290.84;;;22.42;89.27
32083;BME280;18597;48.328;7.932;2023-08-31T07:34:24;99282.28;;;25.47;66.57
32083;BME280;18597;48.328;7.932;2023-08-31T07:36:50;99285.97;;;29.24;49.28
32083;BME280;18597;48.328;7.932;2023-08-31T07:39:16;99279.72;;;32.44;38.73
32083;BME280;18597;48.328;7.932;2023-08-31T07:41:43;99292.13;;;33.74;35.97
32083;BME280;18597;48.328;7.932;2023-08-31T07:44:09;99290.28;;;32.91;36.60
32083;BME280;18597;48.328;7.932;2023-08-31T07:46:35;99294.22;;;31.80;37.56
32083;BME280;18597;48.328;7.932;2023-08-31T07:49:01;99292.88;;;31.46;38.31
32083;BME280;18597;48.328;7.932;2023-08-31T07:51:27;99303.63;;;31.68;36.99
32083;BME280;18597;48.328;7.932;2023-08-31T07:53:53;99299.38;;;32.32;35.91
32083;BME280;18597;48.328;7.932;2023-08-31T07:56:19;99297.06;;;33.09;35.60
32083;BME280;18597;48.328;7.932;2023-08-31T07:58:45;99288.88;;;34.92;32.02
32083;BME280;18597;48.328;7.932;2023-08-31T08:01:11;99296.69;;;35.93;28.85
32083;BME280;18597;48.328;7.932;2023-08-31T08:03:36;99299.69;;;37.51;27.65
32083;BME280;18597;48.328;7.932;2023-08-31T08:06:02;99279.22;;;38.57;26.52
32083;BME280;18597;48.328;7.932;2023-08-31T08:08:29;99277.13;;;37.84;24.92
32083;BME280;18597;48.328;7.932;2023-08-31T08:10:55;99271.72;;;36.84;26.70
32083;BME280;18597;48.328;7.932;2023-08-31T08:13:21;99280.44;;;36.41;28.01
32083;BME280;18597;48.328;7.932;2023-08-31T08:15:47;99288.88;;;36.63;26.63
32083;BME280;18597;48.328;7.932;2023-08-31T08:18:13;99292.88;;;36.85;25.61
32083;BME280;18597;48.328;7.932;2023-08-31T08:20:39;99298.94;;;37.23;24.82
32083;BME280;18597;48.328;7.932;2023-08-31T08:23:06;99298.00;;;37.95;24.95
32083;BME280;18597;48.328;7.932;2023-08-31T08:25:33;99293.31;;;38.52;23.90
32083;BME280;18597;48.328;7.932;2023-08-31T08:27:58;99293.09;;;38.89;23.75
32083;BME280;18597;48.328;7.932;2023-08-31T08:30:24;99294.94;;;39.19;24.48
32083;BME280;18597;48.328;7.932;2023-08-31T08:32:51;99294.25;;;39.57;23.02
32083;BME280;18597;48.328;7.932;2023-08-31T08:35:17;99289.97;;;39.59;21.73
32083;BME280;18597;48.328;7.932;2023-08-31T08:37:43;99299.56;;;38.49;21.31
32083;BME280;18597;48.328;7.932;2023-08-31T08:40:10;99301.75;;;35.91;24.00
32083;BME280;18597;48.328;7.932;2023-08-31T08:42:41;99300.22;;;33.31;25.06
32083;BME280;18597;48.328;7.932;2023-08-31T08:45:13;99306.81;;;30.79;28.97
32083;BME280;18597;48.328;7.932;2023-08-31T08:47:44;99309.03;;;29.18;32.43
32083;BME280;18597;48.328;7.932;2023-08-31T08:50:12;99307.63;;;28.44;32.82
32083;BME280;18597;48.328;7.932;2023-08-31T08:52:39;99304.25;;;27.31;31.97
32083;BME280;18597;48.328;7.932;2023-08-31T08:55:06;99306.53;;;26.77;33.70
32083;BME280;18597;48.328;7.932;2023-08-31T08:57:34;99301.81;;;26.09;36.25
32083;BME280;18597;48.328;7.932;2023-08-31T09:00:00;99310.47;;;25.48;37.90
32083;BME280;18597;48.328;7.932;2023-08-31T09:02:26;99315.09;;;25.05;40.10
32083;BME280;18597;48.328;7.932;2023-08-31T09:04:52;99319.44;;;24.65;40.99
32083;BME280;18597;48.328;7.932;2023-08-31T09:07:21;99320.63;;;24.32;40.69
32083;BME280;18597;48.328;7.932;2023-08-31T09:09:51;99320.94;;;24.05;41.08
32083;BME280;18597;48.328;7.932;2023-08-31T09:12:18;99320.22;;;23.73;39.16
32083;BME280;18597;48.328;7.932;2023-08-31T09:15:00;99327.56;;;23.41;39.58
32083;BME280;18597;48.328;7.932;2023-08-31T09:17:41;99324.22;;;23.14;38.33
32083;BME280;18597;48.328;7.932;2023-08-31T09:20:09;99322.66;;;22.93;41.04
32083;BME280;18597;48.328;7.932;2023-08-31T09:22:35;99327.19;;;22.68;41.28
32083;BME280;18597;48.328;7.932;2023-08-31T09:25:01;99319.38;;;22.20;40.26
32083;BME280;18597;48.328;7.932;2023-08-31T09:27:29;99320.66;;;22.04;42.86
32083;BME280;18597;48.328;7.932;2023-08-31T09:29:56;99322.56;;;21.97;42.67
32083;BME280;18597;48.328;7.932;2023-08-31T09:32:22;99326.13;;;22.11;42.57
32083;BME280;18597;48.328;7.932;2023-08-31T09:34:48;99326.94;;;22.18;44.24
32083;BME280;18597;48.328;7.932;2023-08-31T09:37:16;99320.41;;;22.32;42.67
32083;BME280;18597;48.328;7.932;2023-08-31T09:39:42;99323.38;;;22.76;42.33
32083;BME280;18597;48.328;7.932;2023-08-31T09:42:08;99321.00;;;23.24;39.96
32083;BME280;18597;48.328;7.932;2023-08-31T09:44:42;99333.91;;;23.35;40.04
32083;BME280;18597;48.328;7.932;2023-08-31T09:47:09;99321.66;;;23.94;39.92
32083;BME280;18597;48.328;7.932;2023-08-31T09:49:35;99333.28;;;24.63;38.14
32083;BME280;18597;48.328;7.932;2023-08-31T09:52:04;99321.53;;;24.81;36.83
32083;BME280;18597;48.328;7.932;2023-08-31T09:54:34;99334.22;;;25.05;37.94
32083;BME280;18597;48.328;7.932;2023-08-31T09:57:02;99333.88;;;25.55;36.72
32083;BME280;18597;48.328;7.932;2023-08-31T09:59:28;99331.56;;;25.94;35.71
32083;BME280;18597;48.328;7.932;2023-08-31T10:01:55;99324.28;;;25.23;36.69
32083;BME280;18597;48.328;7.932;2023-08-31T10:04:23;99331.50;;;25.47;37.64
32083;BME280;18597;48.328;7.932;2023-08-31T10:06:50;99324.41;;;25.69;36.80
32083;BME280;18597;48.328;7.932;2023-08-31T10:09:16;99323.34;;;25.82;35.88
32083;BME280;18597;48.328;7.932;2023-08-31T10:11:42;99330.53;;;25.53;36.13
32083;BME280;18597;48.328;7.932;2023-08-31T10:14:11;99322.28;;;25.30;36.54
32083;BME280;18597;48.328;7.932;2023-08-31T10:16:41;99327.25;;;24.91;38.43
32083;BME280;18597;48.328;7.932;2023-08-31T10:19:09;99321.25;;;24.52;40.24
32083;BME280;18597;48.328;7.932;2023-08-31T10:21:35;99318.06;;;24.19;40.17
32083;BME280;18597;48.328;7.932;2023-08-31T10:24:01;99312.31;;;24.27;41.10
32083;BME280;18597;48.328;7.932;2023-08-31T10:26:29;99310.25;;;24.41;40.86
32083;BME280;18597;48.328;7.932;2023-08-31T10:28:57;99309.75;;;24.50;41.08
32083;BME280;18597;48.328;7.932;2023-08-31T10:31:24;99308.50;;;24.09;40.49
32083;BME280;18597;48.328;7.932;2023-08-31T10:34:01;99317.03;;;24.38;40.21
32083;BME280;18597;48.328;7.932;2023-08-31T10:36:45;99320.91;;;24.49;41.64
32083;BME280;18597;48.328;7.932;2023-08-31T10:39:15;99319.72;;;24.75;40.70
32083;BME280;18597;48.328;7.932;2023-08-31T10:41:42;99326.34;;;25.27;40.27
32083;BME280;18597;48.328;7.932;2023-08-31T10:44:20;99316.56;;;25.85;39.77
32083;BME280;18597;48.328;7.932;2023-08-31T10:46:47;99317.38;;;25.62;40.03
32083;BME280;18597;48.328;7.932;2023-08-31T10:49:16;99320.66;;;25.52;41.51
32083;BME280;18597;48.328;7.932;2023-08-31T10:51:48;99323.31;;;25.47;41.68
32083;BME280;18597;48.328;7.932;2023-08-31T10:54:37;99319.22;;;25.38;41.71
32083;BME280;18597;48.328;7.932;2023-08-31T10:57:05;99321.00;;;25.32;40.85
32083;BME280;18597;48.328;7.932;2023-08-31T10:59:53;99311.53;;;25.70;41.26
32083;BME280;18597;48.328;7.932;2023-08-31T11:02:38;99319.31;;;25.31;39.57
32083;BME280;18597;48.328;7.932;2023-08-31T11:05:10;99323.78;;;24.84;40.38
32083;BME280;18597;48.328;7.932;2023-08-31T11:07:38;99317.22;;;24.55;39.46
32083;BME280;18597;48.328;7.932;2023-08-31T11:10:23;99303.25;;;24.08;40.37
32083;BME280;18597;48.328;7.932;2023-08-31T11:12:52;99298.94;;;24.00;41.68
32083;BME280;18597;48.328;7.932;2023-08-31T11:15:22;99304.84;;;23.97;42.31
32083;BME280;18597;48.328;7.932;2023-08-31T11:17:50;99305.63;;;23.61;41.65
32083;BME280;18597;48.328;7.932;2023-08-31T11:20:20;99304.50;;;23.44;41.89
32083;BME280;18597;48.328;7.932;2023-08-31T11:22:50;99295.53;;;23.37;42.81
32083;BME280;18597;48.328;7.932;2023-08-31T11:25:17;99300.88;;;23.75;42.75
32083;BME280;18597;48.328;7.932;2023-08-31T11:27:54;99294.41;;;24.13;42.97
32083;BME280;18597;48.328;7.932;2023-08-31T11:30:20;99300.16;;;24.23;42.04
32083;BME280;18597;48.328;7.932;2023-08-31T11:32:50;99296.59;;;24.04;42.14
32083;BME280;18597;48.328;7.932;2023-08-31T11:35:20;99292.72;;;23.93;43.41
32083;BME280;18597;48.328;7.932;2023-08-31T11:37:52;99301.13;;;23.92;42.84
32083;BME280;18597;48.328;7.932;2023-08-31T11:40:18;99294.94;;;24.21;42.59
32083;BME280;18597;48.328;7.932;2023-08-31T11:42:44;99297.69;;;24.70;41.94
32083;BME280;18597;48.328;7.932;2023-08-31T11:45:12;99292.31;;;25.23;41.81
32083;BME280;18597;48.328;7.932;2023-08-31T11:47:40;99290.41;;;25.12;40.98
32083;BME280;18597;48.328;7.932;2023-08-31T11:50:07;99282.09;;;25.30;41.17
32083;BME280;18597;48.328;7.932;2023-08-31T11:52:33;99283.47;;;25.39;40.24
32083;BME280;18597;48.328;7.932;2023-08-31T11:54:59;99284.53;;;25.62;40.30
32083;BME280;18597;48.328;7.932;2023-08-31T11:57:27;99285.25;;;25.57;40.07
32083;BME280;18597;48.328;7.932;2023-08-31T11:59:55;99289.63;;;25.46;40.84
32083;BME280;18597;48.328;7.932;2023-08-31T12:02:21;99291.88;;;25.61;39.60
32083;BME280;18597;48.328;7.932;2023-08-31T12:04:48;99302.19;;;25.78;39.74
32083;BME280;18597;48.328;7.932;2023-08-31T12:07:18;99293.91;;;25.54;40.55
32083;BME280;18597;48.328;7.932;2023-08-31T12:09:45;99295.31;;;25.45;40.08
32083;BME280;18597;48.328;7.932;2023-08-31T12:12:13;99298.06;;;25.45;41.54
32083;BME280;18597;48.328;7.932;2023-08-31T12:14:40;99298.78;;;25.52;39.83
32083;BME280;18597;48.328;7.932;2023-08-31T12:17:08;99295.13;;;25.58;40.43
32083;BME280;18597;48.328;7.932;2023-08-31T12:19:37;99298.34;;;26.02;40.72
32083;BME280;18597;48.328;7.932;2023-08-31T12:22:05;99289.13;;;26.32;38.16
32083;BME280;18597;48.328;7.932;2023-08-31T12:24:39;99295.97;;;26.69;38.54
32083;BME280;18597;48.328;7.932;2023-08-31T12:27:08;99283.41;;;26.73;38.38
32083;BME280;18597;48.328;7.932;2023-08-31T12:29:34;99286.78;;;26.12;38.60
32083;BME280;18597;48.328;7.932;2023-08-31T12:32:00;99280.47;;;25.99;39.48
32083;BME280;18597;48.328;7.932;2023-08-31T12:34:26;99281.53;;;26.45;39.51
32083;BME280;18597;48.328;7.932;2023-08-31T12:36:52;99276.25;;;26.44;38.23
32083;BME280;18597;48.328;7.932;2023-08-31T12:39:18;99277.25;;;26.26;38.83
32083;BME280;18597;48.328;7.932;2023-08-31T12:41:44;99267.13;;;26.26;39.44
32083;BME280;18597;48.328;7.932;2023-08-31T12:44:10;99283.69;;;26.20;38.46
32083;BME280;18597;48.328;7.932;2023-08-31T12:46:35;99276.94;;;25.87;38.08
32083;BME280;18597;48.328;7.932;2023-08-31T12:49:02;99287.53;;;25.84;38.92
32083;BME280;18597;48.328;7.932;2023-08-31T12:51:30;99280.88;;;25.80;38.65
32083;BME280;18597;48.328;7.932;2023-08-31T12:53:57;99287.91;;;25.87;39.37
32083;BME280;18597;48.328;7.932;2023-08-31T12:56:23;99289.66;;;25.70;39.26
32083;BME280;18597;48.328;7.932;2023-08-31T12:58:51;99284.66;;;25.55;39.69
32083;BME280;18597;48.328;7.932;2023-08-31T13:01:20;99283.78;;;25.31;40.22
32083;BME280;18597;48.328;7.932;2023-08-31T13:03:47;99285.19;;;25.10;40.54